sensor_id;sensor_type;location;lat;lon;timestamp;pressure;altitude;pressure_sealevel;temperature;humidity
21276;BME280;36472;52.170;20.884;2023-05-19T00:00:26;101611.28;;;13.49;78.01
21276;BME280;36472;52.170;20.884;2023-05-19T00:03:18;101609.41;;;13.51;77.75
21276;BME280;36472;52.170;20.884;2023-05-19T00:05:51;101606.34;;;13.42;78.11
21276;BME280;36472;52.170;20.884;2023-05-19T00:08:23;101606.34;;;13.42;77.60
21276;BME280;36472;52.170;20.884;2023-05-19T00:10:53;101605.34;;;13.45;77.48
21276;BME280;36472;52.170;20.884;2023-05-19T00:13:24;101613.44;;;13.42;77.65
21276;BME280;36472;52.170;20.884;2023-05-19T00:15:54;101613.50;;;13.40;77.23
21276;BME280;36472;52.170;20.884;2023-05-19T00:18:23;101612.00;;;13.36;77.26
21276;BME280;36472;52.170;20.884;2023-05-19T00:20:53;101610.13;;;13.38;77.80
21276;BME280;36472;52.170;20.884;2023-05-19T00:23:22;101605.09;;;13.34;77.62
21276;BME280;36472;52.170;20.884;2023-05-19T00:25:51;101604.16;;;13.35;78.25
21276;BME280;36472;52.170;20.884;2023-05-19T00:28:20;101602.38;;;13.35;78.98
21276;BME280;36472;52.170;20.884;2023-05-19T00:30:51;101609.44;;;13.35;78.56
21276;BME280;36472;52.170;20.884;2023-05-19T00:33:20;101607.66;;;13.35;78.30
21276;BME280;36472;52.170;20.884;2023-05-19T00:35:49;101603.72;;;13.26;78.37
21276;BME280;36472;52.170;20.884;2023-05-19T00:38:19;101607.31;;;13.25;79.09
21276;BME280;36472;52.170;20.884;2023-05-19T00:40:48;101613.53;;;13.24;79.63
21276;BME280;36472;52.170;20.884;2023-05-19T00:43:18;101605.78;;;13.21;78.36
21276;BME280;36472;52.170;20.884;2023-05-19T00:45:47;101610.28;;;13.19;78.90
21276;BME280;36472;52.170;20.884;2023-05-19T00:48:17;101601.69;;;13.16;78.28
21276;BME280;36472;52.170;20.884;2023-05-19T00:50:48;101607.47;;;13.06;77.55
21276;BME280;36472;52.170;20.884;2023-05-19T00:53:18;101608.44;;;13.05;76.58
21276;BME280;36472;52.170;20.884;2023-05-19T00:55:47;101590.88;;;13.04;75.27
21276;BME280;36472;52.170;20.884;2023-05-19T00:58:18;101597.53;;;12.96;75.24
21276;BME280;36472;52.170;20.884;2023-05-19T01:00:47;101597.63;;;12.94;75.47
21276;BME280;36472;52.170;20.884;2023-05-19T01:03:17;101590.84;;;12.90;75.83
21276;BME280;36472;52.170;20.884;2023-05-19T01:05:47;101587.25;;;12.91;76.02
21276;BME280;36472;52.170;20.884;2023-05-19T01:08:16;101594.97;;;12.94;74.89
21276;BME280;36472;52.170;20.884;2023-05-19T01:10:45;101587.75;;;12.98;75.63
21276;BME280;36472;52.170;20.884;2023-05-19T01:13:15;101596.03;;;12.91;76.11
21276;BME280;36472;52.170;20.884;2023-05-19T01:15:59;101589.03;;;12.90;75.29
21276;BME280;36472;52.170;20.884;2023-05-19T01:18:42;101590.66;;;12.93;75.83
21276;BME280;36472;52.170;20.884;2023-05-19T01:24:45;101579.75;;;12.99;76.45
21276;BME280;36472;52.170;20.884;2023-05-19T01:27:46;101580.88;;;12.95;76.56
21276;BME280;36472;52.170;20.884;2023-05-19T01:30:31;101578.31;;;12.94;76.74
21276;BME280;36472;52.170;20.884;2023-05-19T01:33:05;101586.22;;;12.94;76.98
21276;BME280;36472;52.170;20.884;2023-05-19T01:35:37;101583.59;;;12.94;76.73
21276;BME280;36472;52.170;20.884;2023-05-19T01:38:09;101580.13;;;12.93;76.61
21276;BME280;36472;52.170;20.884;2023-05-19T01:40:40;101576.44;;;12.96;77.27
21276;BME280;36472;52.170;20.884;2023-05-19T01:43:14;101575.59;;;12.95;76.97
21276;BME280;36472;52.170;20.884;2023-05-19T01:45:45;101577.28;;;12.96;76.57
21276;BME280;36472;52.170;20.884;2023-05-19T01:48:16;101571.41;;;12.91;76.32
21276;BME280;36472;52.170;20.884;2023-05-19T01:50:46;101572.19;;;12.93;77.79
21276;BME280;36472;52.170;20.884;2023-05-19T01:53:15;101574.72;;;12.95;76.70
21276;BME280;36472;52.170;20.884;2023-05-19T01:55:48;101569.44;;;12.95;76.73
21276;BME280;36472;52.170;20.884;2023-05-19T01:58:35;101572.00;;;12.96;76.97
21276;BME280;36472;52.170;20.884;2023-05-19T02:01:15;101569.09;;;13.01;77.49
21276;BME280;36472;52.170;20.884;2023-05-19T02:04:12;101564.66;;;13.01;77.23
21276;BME280;36472;52.170;20.884;2023-05-19T02:07:00;101564.66;;;13.01;77.24
21276;BME280;36472;52.170;20.884;2023-05-19T02:09:38;101566.56;;;12.99;77.44
21276;BME280;36472;52.170;20.884;2023-05-19T02:12:17;101562.22;;;12.98;77.94
21276;BME280;36472;52.170;20.884;2023-05-19T02:14:53;101555.50;;;12.93;77.80
21276;BME280;36472;52.170;20.884;2023-05-19T02:17:28;101565.22;;;12.92;77.93
21276;BME280;36472;52.170;20.884;2023-05-19T02:19:59;101567.34;;;12.85;77.89
21276;BME280;36472;52.170;20.884;2023-05-19T02:22:29;101563.50;;;12.91;77.92
21276;BME280;36472;52.170;20.884;2023-05-19T02:24:57;101560.84;;;12.91;77.90
21276;BME280;36472;52.170;20.884;2023-05-19T02:27:27;101557.47;;;12.89;78.10
21276;BME280;36472;52.170;20.884;2023-05-19T02:29:56;101556.53;;;12.90;78.38
21276;BME280;36472;52.170;20.884;2023-05-19T02:32:27;101567.09;;;12.90;78.39
21276;BME280;36472;52.170;20.884;2023-05-19T02:34:56;101562.56;;;12.92;78.50
21276;BME280;36472;52.170;20.884;2023-05-19T02:37:25;101565.38;;;12.89;78.63
21276;BME280;36472;52.170;20.884;2023-05-19T02:39:55;101570.56;;;12.90;78.64
21276;BME280;36472;52.170;20.884;2023-05-19T02:42:24;101565.22;;;12.92;79.12
21276;BME280;36472;52.170;20.884;2023-05-19T02:44:54;101562.47;;;12.94;79.07
21276;BME280;36472;52.170;20.884;2023-05-19T02:47:23;101563.31;;;12.94;79.70
21276;BME280;36472;52.170;20.884;2023-05-19T02:49:53;101569.44;;;12.95;79.68
21276;BME280;36472;52.170;20.884;2023-05-19T02:52:22;101567.75;;;12.94;79.91
21276;BME280;36472;52.170;20.884;2023-05-19T02:54:51;101566.22;;;12.89;79.99
21276;BME280;36472;52.170;20.884;2023-05-19T02:57:20;101562.81;;;12.87;80.50
21276;BME280;36472;52.170;20.884;2023-05-19T02:59:49;101565.38;;;12.89;80.60
21276;BME280;36472;52.170;20.884;2023-05-19T03:02:19;101558.66;;;12.83;81.07
21276;BME280;36472;52.170;20.884;2023-05-19T03:04:47;101568.53;;;12.80;81.44
21276;BME280;36472;52.170;20.884;2023-05-19T03:07:18;101566.22;;;12.73;81.62
21276;BME280;36472;52.170;20.884;2023-05-19T03:09:51;101570.91;;;12.68;82.11
21276;BME280;36472;52.170;20.884;2023-05-19T03:12:20;101570.91;;;12.68;81.99
21276;BME280;36472;52.170;20.884;2023-05-19T03:14:49;101567.34;;;12.69;82.19
21276;BME280;36472;52.170;20.884;2023-05-19T03:17:18;101571.66;;;12.70;82.48
21276;BME280;36472;52.170;20.884;2023-05-19T03:19:47;101578.81;;;12.68;82.52
21276;BME280;36472;52.170;20.884;2023-05-19T03:22:19;101571.00;;;12.67;82.77
21276;BME280;36472;52.170;20.884;2023-05-19T03:24:48;101573.47;;;12.70;82.86
21276;BME280;36472;52.170;20.884;2023-05-19T03:27:18;101578.16;;;12.65;83.16
21276;BME280;36472;52.170;20.884;2023-05-19T03:29:47;101571.94;;;12.66;84.14
21276;BME280;36472;52.170;20.884;2023-05-19T03:32:16;101570.06;;;12.68;84.01
21276;BME280;36472;52.170;20.884;2023-05-19T03:34:46;101572.53;;;12.71;84.20
21276;BME280;36472;52.170;20.884;2023-05-19T03:37:15;101570.91;;;12.68;84.80
21276;BME280;36472;52.170;20.884;2023-05-19T03:39:46;101571.59;;;12.72;84.99
21276;BME280;36472;52.170;20.884;2023-05-19T03:42:15;101577.47;;;12.77;85.53
21276;BME280;36472;52.170;20.884;2023-05-19T03:44:44;101569.72;;;12.74;85.67
21276;BME280;36472;52.170;20.884;2023-05-19T03:47:14;101575.09;;;12.72;85.97
21276;BME280;36472;52.170;20.884;2023-05-19T03:50:07;101567.34;;;12.69;86.06
21276;BME280;36472;52.170;20.884;2023-05-19T03:52:49;101572.72;;;12.68;86.80
21276;BME280;36472;52.170;20.884;2023-05-19T03:55:28;101568.44;;;12.65;86.54
21276;BME280;36472;52.170;20.884;2023-05-19T03:57:57;101570.06;;;12.68;87.43
21276;BME280;36472;52.170;20.884;2023-05-19T04:00:26;101576.78;;;12.73;87.72
21276;BME280;36472;52.170;20.884;2023-05-19T04:02:55;101570.41;;;12.78;87.48
21276;BME280;36472;52.170;20.884;2023-05-19T04:05:24;101575.59;;;12.79;87.46
21276;BME280;36472;52.170;20.884;2023-05-19T04:07:54;101581.91;;;12.77;87.63
21276;BME280;36472;52.170;20.884;2023-05-19T04:10:23;101574.41;;;12.69;87.95
21276;BME280;36472;52.170;20.884;2023-05-19T04:12:56;101576.88;;;12.72;88.11
21276;BME280;36472;52.170;20.884;2023-05-19T04:15:25;101575.19;;;12.71;87.76
21276;BME280;36472;52.170;20.884;2023-05-19T04:17:55;101579.19;;;12.62;88.27
21276;BME280;36472;52.170;20.884;2023-05-19T04:20:24;101577.47;;;12.61;88.32
21276;BME280;36472;52.170;20.884;2023-05-19T04:22:53;101573.63;;;12.67;88.56
21276;BME280;36472;52.170;20.884;2023-05-19T04:25:22;101571.50;;;12.73;88.65
21276;BME280;36472;52.170;20.884;2023-05-19T04:27:52;101568.78;;;12.75;88.21
21276;BME280;36472;52.170;20.884;2023-05-19T04:30:26;101571.59;;;12.72;88.21
21276;BME280;36472;52.170;20.884;2023-05-19T04:32:55;101576.78;;;12.73;88.22
21276;BME280;36472;52.170;20.884;2023-05-19T04:35:27;101573.38;;;12.71;88.36
21276;BME280;36472;52.170;20.884;2023-05-19T04:37:59;101573.91;;;12.62;88.46
21276;BME280;36472;52.170;20.884;2023-05-19T04:40:31;101577.97;;;12.68;88.52
21276;BME280;36472;52.170;20.884;2023-05-19T04:43:01;101579.75;;;12.51;88.38
21276;BME280;36472;52.170;20.884;2023-05-19T04:45:33;101573.41;;;12.56;88.92
21276;BME280;36472;52.170;20.884;2023-05-19T04:48:05;101582.75;;;12.45;88.82
21276;BME280;36472;52.170;20.884;2023-05-19T04:50:34;101580.19;;;12.44;89.62
21276;BME280;36472;52.170;20.884;2023-05-19T04:53:05;101577.72;;;12.41;89.89
21276;BME280;36472;52.170;20.884;2023-05-19T04:55:34;101576.06;;;12.38;89.57
21276;BME280;36472;52.170;20.884;2023-05-19T04:58:06;101579.31;;;12.27;90.97
21276;BME280;36472;52.170;20.884;2023-05-19T05:00:36;101573.72;;;12.33;91.16
21276;BME280;36472;52.170;20.884;2023-05-19T05:03:07;101584.41;;;12.30;91.66
21276;BME280;36472;52.170;20.884;2023-05-19T05:05:36;101582.53;;;12.32;91.53
21276;BME280;36472;52.170;20.884;2023-05-19T05:08:05;101585.84;;;12.36;90.87
21276;BME280;36472;52.170;20.884;2023-05-19T05:10:39;101580.22;;;12.26;91.46
21276;BME280;36472;52.170;20.884;2023-05-19T05:13:09;101583.56;;;12.30;91.55
21276;BME280;36472;52.170;20.884;2023-05-19T05:15:41;101586.22;;;12.30;92.11
21276;BME280;36472;52.170;20.884;2023-05-19T05:18:11;101581.78;;;12.30;92.33
21276;BME280;36472;52.170;20.884;2023-05-19T05:20:42;101584.25;;;12.33;92.07
21276;BME280;36472;52.170;20.884;2023-05-19T05:23:12;101581.63;;;12.33;91.95
21276;BME280;36472;52.170;20.884;2023-05-19T05:25:45;101583.66;;;12.28;92.59
21276;BME280;36472;52.170;20.884;2023-05-19T05:28:16;101582.69;;;12.29;93.24
21276;BME280;36472;52.170;20.884;2023-05-19T05:30:47;101584.84;;;12.39;93.80
21276;BME280;36472;52.170;20.884;2023-05-19T05:33:18;101582.22;;;12.39;94.13
21276;BME280;36472;52.170;20.884;2023-05-19T05:35:49;101573.28;;;12.41;95.03
21276;BME280;36472;52.170;20.884;2023-05-19T05:38:18;101580.34;;;12.41;94.98
21276;BME280;36472;52.170;20.884;2023-05-19T05:40:48;101578.56;;;12.41;94.83
21276;BME280;36472;52.170;20.884;2023-05-19T05:43:17;101574.13;;;12.42;94.12
21276;BME280;36472;52.170;20.884;2023-05-19T05:45:53;101572.50;;;12.39;94.65
21276;BME280;36472;52.170;20.884;2023-05-19T05:48:24;101577.88;;;12.38;95.13
21276;BME280;36472;52.170;20.884;2023-05-19T05:50:55;101574.72;;;12.47;95.48
21276;BME280;36472;52.170;20.884;2023-05-19T05:53:30;101576.59;;;12.45;95.12
21276;BME280;36472;52.170;20.884;2023-05-19T05:56:04;101571.75;;;12.53;94.93
21276;BME280;36472;52.170;20.884;2023-05-19T05:58:42;101570.91;;;12.52;95.07
21276;BME280;36472;52.170;20.884;2023-05-19T06:01:13;101582.22;;;12.54;93.45
21276;BME280;36472;52.170;20.884;2023-05-19T06:03:44;101573.78;;;12.48;94.63
21276;BME280;36472;52.170;20.884;2023-05-19T06:06:18;101580.78;;;12.49;94.59
21276;BME280;36472;52.170;20.884;2023-05-19T06:08:48;101570.75;;;12.56;94.28
21276;BME280;36472;52.170;20.884;2023-05-19T06:11:17;101566.75;;;12.64;95.42
21276;BME280;36472;52.170;20.884;2023-05-19T06:13:47;101573.31;;;12.73;94.77
21276;BME280;36472;52.170;20.884;2023-05-19T06:16:35;101578.81;;;12.84;95.05
21276;BME280;36472;52.170;20.884;2023-05-19T06:19:04;101573.03;;;12.94;94.75
21276;BME280;36472;52.170;20.884;2023-05-19T06:21:33;101576.44;;;12.96;94.29
21276;BME280;36472;52.170;20.884;2023-05-19T06:24:02;101571.66;;;13.02;94.27
21276;BME280;36472;52.170;20.884;2023-05-19T06:26:31;101567.63;;;13.11;93.94
21276;BME280;36472;52.170;20.884;2023-05-19T06:29:00;101575.13;;;13.19;94.41
21276;BME280;36472;52.170;20.884;2023-05-19T06:31:30;101576.56;;;13.24;93.15
21276;BME280;36472;52.170;20.884;2023-05-19T06:34:10;101575.81;;;13.22;90.55
21276;BME280;36472;52.170;20.884;2023-05-19T06:36:42;101574.34;;;13.17;91.00
21276;BME280;36472;52.170;20.884;2023-05-19T06:39:13;101574.34;;;13.17;92.07
21276;BME280;36472;52.170;20.884;2023-05-19T06:41:42;101572.41;;;13.20;92.36
21276;BME280;36472;52.170;20.884;2023-05-19T06:44:23;101578.84;;;13.31;91.51
21276;BME280;36472;52.170;20.884;2023-05-19T06:46:52;101577.16;;;13.29;90.01
21276;BME280;36472;52.170;20.884;2023-05-19T06:49:23;101575.72;;;13.24;89.17
21276;BME280;36472;52.170;20.884;2023-05-19T06:51:55;101576.72;;;13.21;89.57
21276;BME280;36472;52.170;20.884;2023-05-19T06:54:25;101587.91;;;13.10;89.51
21276;BME280;36472;52.170;20.884;2023-05-19T06:56:56;101576.06;;;13.18;90.89
21276;BME280;36472;52.170;20.884;2023-05-19T06:59:25;101578.16;;;13.27;91.08
21276;BME280;36472;52.170;20.884;2023-05-19T07:01:55;101568.72;;;13.39;90.39
21276;BME280;36472;52.170;20.884;2023-05-19T07:04:26;101567.88;;;13.38;90.07
21276;BME280;36472;52.170;20.884;2023-05-19T07:06:55;101575.03;;;13.36;90.85
21276;BME280;36472;52.170;20.884;2023-05-19T07:09:26;101569.19;;;13.45;91.03
21276;BME280;36472;52.170;20.884;2023-05-19T07:11:56;101572.13;;;13.41;90.07
21276;BME280;36472;52.170;20.884;2023-05-19T07:14:25;101565.81;;;13.43;90.63
21276;BME280;36472;52.170;20.884;2023-05-19T07:16:55;101568.34;;;13.45;91.33
21276;BME280;36472;52.170;20.884;2023-05-19T07:19:25;101571.66;;;13.49;91.97
21276;BME280;36472;52.170;20.884;2023-05-19T07:21:54;101576.03;;;13.50;91.75
21276;BME280;36472;52.170;20.884;2023-05-19T07:24:26;101572.59;;;13.47;90.44
21276;BME280;36472;52.170;20.884;2023-05-19T07:26:55;101573.47;;;13.48;90.53
21276;BME280;36472;52.170;20.884;2023-05-19T07:29:25;101571.66;;;13.49;90.68
21276;BME280;36472;52.170;20.884;2023-05-19T07:31:54;101566.28;;;13.50;89.81
21276;BME280;36472;52.170;20.884;2023-05-19T07:34:26;101576.28;;;13.45;89.98
21276;BME280;36472;52.170;20.884;2023-05-19T07:36:55;101574.31;;;13.49;89.49
21276;BME280;36472;52.170;20.884;2023-05-19T07:39:24;101575.22;;;13.47;90.22
21276;BME280;36472;52.170;20.884;2023-05-19T07:41:56;101577.03;;;13.47;90.51
21276;BME280;36472;52.170;20.884;2023-05-19T07:44:26;101574.28;;;13.34;90.50
21276;BME280;36472;52.170;20.884;2023-05-19T07:46:57;101580.91;;;13.41;90.42
21276;BME280;36472;52.170;20.884;2023-05-19T07:49:28;101573.66;;;13.45;90.36
21276;BME280;36472;52.170;20.884;2023-05-19T07:51:57;101575.81;;;13.53;89.81
21276;BME280;36472;52.170;20.884;2023-05-19T07:54:27;101576.28;;;13.45;88.77
21276;BME280;36472;52.170;20.884;2023-05-19T07:56:56;101588.44;;;13.47;89.36
21276;BME280;36472;52.170;20.884;2023-05-19T07:59:25;101580.94;;;13.56;89.98
21276;BME280;36472;52.170;20.884;2023-05-19T08:01:54;101576.59;;;13.55;90.27
21276;BME280;36472;52.170;20.884;2023-05-19T08:04:23;101575.28;;;13.62;90.33
21276;BME280;36472;52.170;20.884;2023-05-19T08:06:54;101581.06;;;13.69;90.43
21276;BME280;36472;52.170;20.884;2023-05-19T08:09:23;101574.38;;;13.77;89.77
21276;BME280;36472;52.170;20.884;2023-05-19T08:11:52;101584.84;;;13.79;89.39
21276;BME280;36472;52.170;20.884;2023-05-19T08:14:21;101578.91;;;13.75;89.05
21276;BME280;36472;52.170;20.884;2023-05-19T08:16:50;101580.59;;;13.76;88.75
21276;BME280;36472;52.170;20.884;2023-05-19T08:19:20;101577.78;;;13.79;87.69
21276;BME280;36472;52.170;20.884;2023-05-19T08:21:49;101573.63;;;13.75;87.91
21276;BME280;36472;52.170;20.884;2023-05-19T08:24:20;101567.75;;;13.70;88.24
21276;BME280;36472;52.170;20.884;2023-05-19T08:26:49;101578.13;;;13.73;88.59
21276;BME280;36472;52.170;20.884;2023-05-19T08:29:18;101578.13;;;13.73;88.96
21276;BME280;36472;52.170;20.884;2023-05-19T08:31:47;101579.66;;;13.77;87.63
21276;BME280;36472;52.170;20.884;2023-05-19T08:34:17;101574.63;;;13.73;86.97
21276;BME280;36472;52.170;20.884;2023-05-19T08:36:46;101580.50;;;13.78;87.28
21276;BME280;36472;52.170;20.884;2023-05-19T08:39:15;101567.84;;;13.83;86.68
21276;BME280;36472;52.170;20.884;2023-05-19T08:41:47;101572.50;;;13.94;86.89
21276;BME280;36472;52.170;20.884;2023-05-19T08:44:17;101573.81;;;13.87;84.81
21276;BME280;36472;52.170;20.884;2023-05-19T08:46:46;101574.47;;;13.90;85.73
21276;BME280;36472;52.170;20.884;2023-05-19T08:49:22;101577.97;;;13.91;86.09
21276;BME280;36472;52.170;20.884;2023-05-19T08:52:02;101571.72;;;13.92;85.60
21276;BME280;36472;52.170;20.884;2023-05-19T08:54:42;101571.19;;;14.01;84.80
21276;BME280;36472;52.170;20.884;2023-05-19T08:57:15;101576.75;;;13.96;85.36
21276;BME280;36472;52.170;20.884;2023-05-19T08:59:45;101582.25;;;14.08;85.48
21276;BME280;36472;52.170;20.884;2023-05-19T09:02:16;101582.50;;;14.17;85.96
21276;BME280;36472;52.170;20.884;2023-05-19T09:04:46;101579.59;;;14.22;84.95
21276;BME280;36472;52.170;20.884;2023-05-19T09:07:17;101582.88;;;14.26;85.89
21276;BME280;36472;52.170;20.884;2023-05-19T09:09:46;101582.50;;;14.32;84.61
21276;BME280;36472;52.170;20.884;2023-05-19T09:12:18;101583.63;;;14.42;83.73
21276;BME280;36472;52.170;20.884;2023-05-19T09:14:47;101585.13;;;14.46;82.25
21276;BME280;36472;52.170;20.884;2023-05-19T09:17:16;101584.84;;;14.51;83.67
21276;BME280;36472;52.170;20.884;2023-05-19T09:19:46;101578.06;;;14.47;83.13
21276;BME280;36472;52.170;20.884;2023-05-19T09:22:16;101582.13;;;14.52;82.56
21276;BME280;36472;52.170;20.884;2023-05-19T09:24:46;101579.84;;;14.46;82.98
21276;BME280;36472;52.170;20.884;2023-05-19T09:27:21;101572.47;;;14.51;81.41
21276;BME280;36472;52.170;20.884;2023-05-19T09:29:51;101575.97;;;14.52;82.98
21276;BME280;36472;52.170;20.884;2023-05-19T09:32:24;101575.53;;;14.45;81.33
21276;BME280;36472;52.170;20.884;2023-05-19T09:34:54;101577.84;;;14.50;81.70
21276;BME280;36472;52.170;20.884;2023-05-19T09:37:26;101574.69;;;14.59;83.05
21276;BME280;36472;52.170;20.884;2023-05-19T09:39:56;101575.03;;;14.67;81.21
21276;BME280;36472;52.170;20.884;2023-05-19T09:42:26;101571.72;;;14.64;81.65
21276;BME280;36472;52.170;20.884;2023-05-19T09:45:01;101574.72;;;14.72;80.76
21276;BME280;36472;52.170;20.884;2023-05-19T09:47:34;101570.69;;;14.66;80.68
21276;BME280;36472;52.170;20.884;2023-05-19T09:50:07;101575.69;;;14.71;81.26
21276;BME280;36472;52.170;20.884;2023-05-19T09:52:37;101573.25;;;14.68;79.85
21276;BME280;36472;52.170;20.884;2023-05-19T09:55:10;101580.97;;;14.71;81.55
21276;BME280;36472;52.170;20.884;2023-05-19T09:57:41;101580.75;;;14.74;82.55
21276;BME280;36472;52.170;20.884;2023-05-19T10:00:14;101579.09;;;14.73;80.86
21276;BME280;36472;52.170;20.884;2023-05-19T10:02:46;101576.25;;;14.76;81.02
21276;BME280;36472;52.170;20.884;2023-05-19T10:05:17;101576.47;;;14.86;81.12
21276;BME280;36472;52.170;20.884;2023-05-19T10:07:50;101578.28;;;14.85;80.18
21276;BME280;36472;52.170;20.884;2023-05-19T10:10:21;101574.47;;;14.89;79.59
21276;BME280;36472;52.170;20.884;2023-05-19T10:12:53;101574.94;;;14.96;79.27
21276;BME280;36472;52.170;20.884;2023-05-19T10:15:24;101573.59;;;15.03;78.58
21276;BME280;36472;52.170;20.884;2023-05-19T10:17:53;101565.53;;;15.05;78.67
21276;BME280;36472;52.170;20.884;2023-05-19T10:20:25;101569.69;;;15.09;78.88
21276;BME280;36472;52.170;20.884;2023-05-19T10:22:55;101560.78;;;15.10;78.21
21276;BME280;36472;52.170;20.884;2023-05-19T10:25:24;101562.88;;;15.05;79.13
21276;BME280;36472;52.170;20.884;2023-05-19T10:27:59;101550.44;;;15.07;80.25
21276;BME280;36472;52.170;20.884;2023-05-19T10:30:34;101559.66;;;15.27;79.77
21276;BME280;36472;52.170;20.884;2023-05-19T10:33:09;101562.16;;;15.43;77.82
21276;BME280;36472;52.170;20.884;2023-05-19T10:36:14;101561.75;;;15.62;77.95
21276;BME280;36472;52.170;20.884;2023-05-19T10:38:54;101562.66;;;15.75;76.27
21276;BME280;36472;52.170;20.884;2023-05-19T10:41:35;101556.44;;;15.75;76.47
21276;BME280;36472;52.170;20.884;2023-05-19T10:44:12;101551.84;;;15.78;75.84
21276;BME280;36472;52.170;20.884;2023-05-19T10:46:44;101555.13;;;15.82;76.36
21276;BME280;36472;52.170;20.884;2023-05-19T10:49:19;101551.94;;;15.89;76.00
21276;BME280;36472;52.170;20.884;2023-05-19T10:51:51;101552.38;;;15.96;76.02
21276;BME280;36472;52.170;20.884;2023-05-19T10:54:41;101549.72;;;16.09;75.92
21276;BME280;36472;52.170;20.884;2023-05-19T10:57:14;101549.28;;;16.02;75.05
21276;BME280;36472;52.170;20.884;2023-05-19T10:59:46;101554.16;;;15.96;74.00
21276;BME280;36472;52.170;20.884;2023-05-19T11:02:37;101554.38;;;15.93;73.63
21276;BME280;36472;52.170;20.884;2023-05-19T11:05:09;101553.31;;;15.95;74.61
21276;BME280;36472;52.170;20.884;2023-05-19T11:07:42;101553.97;;;15.99;73.89
21276;BME280;36472;52.170;20.884;2023-05-19T11:10:12;101557.25;;;16.02;73.79
21276;BME280;36472;52.170;20.884;2023-05-19T11:12:44;101557.66;;;16.09;74.19
21276;BME280;36472;52.170;20.884;2023-05-19T11:15:15;101555.75;;;16.11;72.70
21276;BME280;36472;52.170;20.884;2023-05-19T11:17:47;101557.53;;;16.11;73.71
21276;BME280;36472;52.170;20.884;2023-05-19T11:20:22;101557.31;;;16.14;74.52
21276;BME280;36472;52.170;20.884;2023-05-19T11:23:06;101556.06;;;16.19;73.30
21276;BME280;36472;52.170;20.884;2023-05-19T11:25:44;101562.72;;;16.25;72.41
21276;BME280;36472;52.170;20.884;2023-05-19T11:28:16;101558.25;;;16.25;72.89
21276;BME280;36472;52.170;20.884;2023-05-19T11:30:48;101549.88;;;16.32;72.89
21276;BME280;36472;52.170;20.884;2023-05-19T11:33:19;101555.34;;;16.41;72.31
21276;BME280;36472;52.170;20.884;2023-05-19T11:35:55;101554.09;;;16.47;72.45
21276;BME280;36472;52.170;20.884;2023-05-19T11:38:27;101554.94;;;16.48;73.63
21276;BME280;36472;52.170;20.884;2023-05-19T11:40:57;101561.31;;;16.45;73.00
21276;BME280;36472;52.170;20.884;2023-05-19T11:43:26;101562.06;;;16.47;72.14
21276;BME280;36472;52.170;20.884;2023-05-19T11:45:56;101563.09;;;16.44;72.68
21276;BME280;36472;52.170;20.884;2023-05-19T11:48:28;101560.66;;;16.41;72.73
21276;BME280;36472;52.170;20.884;2023-05-19T11:50:59;101557.78;;;16.44;73.18
21276;BME280;36472;52.170;20.884;2023-05-19T11:53:28;101559.41;;;16.47;72.51
21276;BME280;36472;52.170;20.884;2023-05-19T11:56:02;101556.63;;;16.49;72.21
21276;BME280;36472;52.170;20.884;2023-05-19T11:58:32;101555.22;;;16.56;70.78
21276;BME280;36472;52.170;20.884;2023-05-19T12:01:04;101557.56;;;16.60;71.56
21276;BME280;36472;52.170;20.884;2023-05-19T12:03:33;101559.13;;;16.63;71.76
21276;BME280;36472;52.170;20.884;2023-05-19T12:06:03;101563.91;;;16.58;71.15
21276;BME280;36472;52.170;20.884;2023-05-19T12:08:35;101564.22;;;16.66;71.69
21276;BME280;36472;52.170;20.884;2023-05-19T12:11:05;101560.47;;;16.69;71.42
21276;BME280;36472;52.170;20.884;2023-05-19T12:13:35;101557.81;;;16.69;70.99
21276;BME280;36472;52.170;20.884;2023-05-19T12:16:07;101554.00;;;16.73;70.80
21276;BME280;36472;52.170;20.884;2023-05-19T12:18:37;101562.41;;;16.67;71.18
21276;BME280;36472;52.170;20.884;2023-05-19T12:21:06;101557.59;;;16.72;71.18
21276;BME280;36472;52.170;20.884;2023-05-19T12:23:36;101558.22;;;16.75;71.86
21276;BME280;36472;52.170;20.884;2023-05-19T12:26:07;101547.50;;;16.77;70.34
21276;BME280;36472;52.170;20.884;2023-05-19T12:28:36;101556.66;;;16.73;71.01
21276;BME280;36472;52.170;20.884;2023-05-19T12:31:06;101555.69;;;16.74;71.66
21276;BME280;36472;52.170;20.884;2023-05-19T12:33:36;101555.06;;;16.70;70.78
21276;BME280;36472;52.170;20.884;2023-05-19T12:36:06;101562.47;;;16.78;72.37
21276;BME280;36472;52.170;20.884;2023-05-19T12:38:36;101554.94;;;16.85;72.21
21276;BME280;36472;52.170;20.884;2023-05-19T12:41:06;101555.22;;;16.93;71.60
21276;BME280;36472;52.170;20.884;2023-05-19T12:43:35;101550.75;;;16.93;71.94
21276;BME280;36472;52.170;20.884;2023-05-19T12:46:12;101555.09;;;16.94;72.27
21276;BME280;36472;52.170;20.884;2023-05-19T12:48:44;101550.16;;;16.90;71.95
21276;BME280;36472;52.170;20.884;2023-05-19T12:51:16;101550.38;;;16.87;70.91
21276;BME280;36472;52.170;20.884;2023-05-19T12:53:48;101548.66;;;16.86;70.73
21276;BME280;36472;52.170;20.884;2023-05-19T12:56:18;101539.75;;;16.87;71.24
21276;BME280;36472;52.170;20.884;2023-05-19T12:58:53;101537.38;;;16.95;72.08
21276;BME280;36472;52.170;20.884;2023-05-19T13:01:23;101543.97;;;16.89;70.63
21276;BME280;36472;52.170;20.884;2023-05-19T13:03:53;101541.19;;;16.91;71.02
21276;BME280;36472;52.170;20.884;2023-05-19T13:06:22;101542.19;;;16.90;70.44